Time;durP1;ratioP1;P1;durP2;ratioP2;P2;SDS_P1;SDS_P2;PMS_P1;PMS_P2;Temp;Humidity;BMP_temperature;BMP_pressure;BME280_temperature;BME280_humidity;BME280_pressure;Samples;Min_cycle;Max_cycle;Signal;HPM_P1;HPM_P2
2023/03/15 00:01:17;;;;;;;2.40;0.50;;;19.50;52.80;;;;;;5060322;28;20059;-72
2023/03/15 00:03:43;;;;;;;2.47;0.57;;;19.50;52.80;;;;;;5072032;28;20094;-71
2023/03/15 00:06:08;;;;;;;2.15;0.50;;;19.40;52.80;;;;;;5079318;28;20066;-72
2023/03/15 00:08:34;;;;;;;1.88;0.50;;;19.40;52.80;;;;;;5061971;28;20036;-72
2023/03/15 00:11:00;;;;;;;2.53;0.50;;;19.40;52.80;;;;;;5077681;28;20093;-72
2023/03/15 00:13:25;;;;;;;3.35;0.60;;;19.40;53.40;;;;;;5074046;28;20036;-72
2023/03/15 00:15:52;;;;;;;2.33;0.60;;;19.40;52.70;;;;;;5075607;28;20411;-72
2023/03/15 00:18:18;;;;;;;2.28;0.55;;;19.40;52.70;;;;;;5066013;28;20063;-72
2023/03/15 00:20:45;;;;;;;2.83;0.70;;;19.40;52.70;;;;;;5074476;28;20056;-72
2023/03/15 00:23:11;;;;;;;4.53;0.65;;;19.40;52.70;;;;;;5076552;28;20124;-72
2023/03/15 00:25:37;;;;;;;2.35;0.63;;;19.30;52.60;;;;;;5075153;28;20088;-72
2023/03/15 00:28:03;;;;;;;2.58;0.60;;;19.40;52.70;;;;;;5090705;28;20036;-72
2023/03/15 00:30:28;;;;;;;2.78;0.70;;;19.40;52.70;;;;;;5074328;28;20051;-73
2023/03/15 00:32:54;;;;;;;2.03;0.65;;;19.30;52.60;;;;;;5075864;28;20044;-72
2023/03/15 00:35:20;;;;;;;2.53;0.50;;;19.30;52.60;;;;;;5075711;28;20045;-72
2023/03/15 00:37:46;;;;;;;3.80;0.50;;;19.30;52.60;;;;;;5073017;28;20437;-72
2023/03/15 00:40:11;;;;;;;3.75;0.70;;;19.30;52.60;;;;;;5075422;28;20514;-72
2023/03/15 00:42:38;;;;;;;2.72;0.55;;;19.30;52.60;;;;;;5065007;28;20048;-72
2023/03/15 00:45:04;;;;;;;3.30;0.60;;;19.30;52.60;;;;;;5073514;28;20036;-71
2023/03/15 00:47:30;;;;;;;3.03;0.55;;;19.30;52.60;;;;;;5073560;28;20139;-72
2023/03/15 00:49:55;;;;;;;2.30;0.47;;;19.20;52.50;;;;;;5056800;28;20116;-72
2023/03/15 00:52:21;;;;;;;3.17;0.60;;;19.30;52.60;;;;;;5083364;28;20484;-72
2023/03/15 00:54:51;;;;;;;1.95;0.65;;;19.30;52.60;;;;;;5075211;28;20043;-72
2023/03/15 00:57:17;;;;;;;2.17;0.50;;;19.20;52.50;;;;;;5070058;28;20044;-72
2023/03/15 00:59:43;;;;;;;2.50;0.85;;;19.20;52.50;;;;;;5059677;28;20074;-72
2023/03/15 01:02:09;;;;;;;4.13;0.65;;;19.20;52.50;;;;;;5083159;28;20499;-72
2023/03/15 01:04:35;;;;;;;1.75;0.45;;;19.20;52.40;;;;;;5055914;28;20071;-72
2023/03/15 01:07:00;;;;;;;2.10;0.45;;;19.20;52.50;;;;;;5085748;28;20040;-72
2023/03/15 01:09:26;;;;;;;4.15;0.60;;;19.20;52.50;;;;;;5080062;28;20052;-72
2023/03/15 01:11:51;;;;;;;1.13;0.40;;;19.20;52.50;;;;;;5082206;28;20052;-72
2023/03/15 01:14:17;;;;;;;2.65;0.50;;;19.10;52.40;;;;;;5074875;28;20028;-73
2023/03/15 01:16:44;;;;;;;2.15;0.50;;;19.20;52.50;;;;;;5082651;28;20495;-73
2023/03/15 01:19:11;;;;;;;3.28;0.47;;;19.20;52.50;;;;;;5082810;28;20123;-72
2023/03/15 01:21:36;;;;;;;3.20;0.60;;;19.10;52.40;;;;;;5063166;28;20093;-72
2023/03/15 01:24:02;;;;;;;2.05;0.40;;;19.10;52.40;;;;;;5075851;28;20407;-72
2023/03/15 01:26:27;;;;;;;3.47;0.60;;;19.10;52.40;;;;;;5060458;28;20047;-72
2023/03/15 01:28:54;;;;;;;1.48;0.50;;;19.10;52.40;;;;;;5067910;28;20033;-72
2023/03/15 01:31:27;;;;;;;2.40;0.50;;;19.10;52.40;;;;;;5078778;28;20040;-73
2023/03/15 01:33:52;;;;;;;2.60;0.50;;;19.10;52.40;;;;;;5059457;28;20036;-72
2023/03/15 01:36:18;;;;;;;1.70;0.43;;;19.10;52.40;;;;;;5076681;28;20036;-73
2023/03/15 01:38:44;;;;;;;1.25;0.50;;;19.00;52.40;;;;;;5087438;28;20048;-72
2023/03/15 01:41:12;;;;;;;2.92;0.45;;;19.10;52.40;;;;;;5075068;28;20136;-73
2023/03/15 01:43:38;;;;;;;1.67;0.50;;;19.00;52.40;;;;;;5079894;28;20054;-72
2023/03/15 01:46:22;;;;;;;1.15;0.50;;;19.00;52.50;;;;;;5057138;28;20135;-72
2023/03/15 01:49:06;;;;;;;2.72;0.52;;;19.00;52.50;;;;;;5069210;28;20135;-72
2023/03/15 01:51:41;;;;;;;1.55;0.40;;;19.00;52.50;;;;;;5060150;28;20044;-72
2023/03/15 01:54:40;;;;;;;1.80;0.40;;;19.00;52.50;;;;;;5024912;28;20040;-72
2023/03/15 01:57:09;;;;;;;3.45;0.68;;;19.00;52.50;;;;;;5082062;28;20047;-72
2023/03/15 01:59:37;;;;;;;1.67;0.47;;;19.00;52.50;;;;;;5063001;28;20040;-72
2023/03/15 02:02:03;;;;;;;2.47;0.52;;;19.00;52.50;;;;;;5063554;28;20067;-72
2023/03/15 02:04:46;;;;;;;2.50;0.50;;;19.00;52.60;;;;;;5072673;28;20412;-72
2023/03/15 02:07:12;;;;;;;3.20;0.50;;;19.00;52.50;;;;;;5065237;28;20480;-72
2023/03/15 02:09:49;;;;;;;1.50;0.50;;;19.00;52.50;;;;;;5062410;28;20076;-72
2023/03/15 02:12:15;;;;;;;2.22;0.40;;;19.00;52.40;;;;;;5063498;28;20040;-72
2023/03/15 02:14:41;;;;;;;2.33;0.40;;;19.00;52.50;;;;;;5038416;28;20468;-72
2023/03/15 02:17:06;;;;;;;2.28;0.43;;;19.00;52.50;;;;;;5081459;28;20056;-72
2023/03/15 02:19:47;;;;;;;2.17;0.40;;;19.00;52.40;;;;;;5063605;28;20044;-72
2023/03/15 02:22:25;;;;;;;2.42;0.40;;;19.00;52.40;;;;;;5046229;28;20052;-72
2023/03/15 02:25:15;;;;;;;1.33;0.40;;;19.00;52.40;;;;;;5073881;28;20117;-72
2023/03/15 02:27:40;;;;;;;2.55;0.50;;;19.00;52.40;;;;;;5066744;28;20044;-72
2023/03/15 02:30:07;;;;;;;2.35;0.40;;;19.00;52.50;;;;;;5077156;28;20041;-72
2023/03/15 02:32:32;;;;;;;1.10;0.40;;;19.00;52.50;;;;;;5080995;28;20048;-72
2023/03/15 02:34:58;;;;;;;2.28;0.40;;;19.00;52.50;;;;;;5055590;28;20036;-71
2023/03/15 02:37:23;;;;;;;1.17;0.40;;;19.00;52.50;;;;;;5063423;28;20039;-72
2023/03/15 02:39:49;;;;;;;1.73;0.40;;;19.00;52.60;;;;;;5080540;28;20123;-72
2023/03/15 02:42:14;;;;;;;1.20;0.43;;;19.00;52.50;;;;;;5080442;28;20054;-72
2023/03/15 02:44:41;;;;;;;2.08;0.50;;;19.00;52.50;;;;;;5072243;28;20028;-72
2023/03/15 02:47:14;;;;;;;2.38;0.40;;;19.00;52.60;;;;;;5061822;28;20042;-72
2023/03/15 02:49:42;;;;;;;1.52;0.40;;;19.00;52.60;;;;;;5063229;28;20057;-72
2023/03/15 02:52:08;;;;;;;2.00;0.40;;;19.00;52.60;;;;;;5079068;28;20072;-72
2023/03/15 02:54:34;;;;;;;1.30;0.40;;;19.00;52.60;;;;;;5074527;28;20036;-72
2023/03/15 02:57:01;;;;;;;1.40;0.40;;;19.00;52.60;;;;;;5058712;28;20479;-72
2023/03/15 02:59:26;;;;;;;2.03;0.47;;;19.00;52.60;;;;;;5084035;28;20484;-72
2023/03/15 03:01:52;;;;;;;0.90;0.30;;;19.00;52.60;;;;;;5075377;28;20081;-72
2023/03/15 03:04:17;;;;;;;2.75;0.60;;;19.00;52.60;;;;;;5075893;28;20470;-72
2023/03/15 03:06:43;;;;;;;1.75;0.32;;;19.00;52.60;;;;;;5056114;28;20051;-72
2023/03/15 03:09:10;;;;;;;2.30;0.30;;;19.00;52.50;;;;;;5086959;28;20039;-72
2023/03/15 03:11:35;;;;;;;1.10;0.40;;;19.10;52.60;;;;;;5071029;28;20098;-73
2023/03/15 03:14:01;;;;;;;1.33;0.40;;;19.10;52.60;;;;;;5080154;28;20036;-72
2023/03/15 03:16:26;;;;;;;0.82;0.43;;;19.00;52.50;;;;;;5072051;28;20054;-71
2023/03/15 03:18:52;;;;;;;1.08;0.40;;;19.10;52.60;;;;;;5069680;28;20047;-72
2023/03/15 03:21:17;;;;;;;2.15;0.50;;;19.10;52.60;;;;;;5054767;28;20063;-72
2023/03/15 03:23:45;;;;;;;1.17;0.32;;;19.10;52.60;;;;;;5079940;28;20037;-72
2023/03/15 03:26:15;;;;;;;1.67;0.40;;;19.10;52.50;;;;;;5072045;28;20054;-72
2023/03/15 03:28:41;;;;;;;1.73;0.40;;;19.10;52.50;;;;;;5070021;28;20044;-72
2023/03/15 03:31:13;;;;;;;0.63;0.28;;;19.10;52.50;;;;;;5054548;28;20174;-72
2023/03/15 03:33:39;;;;;;;1.38;0.30;;;19.10;52.50;;;;;;5044131;28;20503;-72
2023/03/15 03:36:05;;;;;;;1.13;0.30;;;19.10;52.50;;;;;;5072280;28;20036;-72
2023/03/15 03:38:30;;;;;;;0.68;0.35;;;19.10;52.50;;;;;;5087017;28;20051;-71
2023/03/15 03:40:56;;;;;;;1.50;0.38;;;19.10;52.50;;;;;;5054536;28;20373;-72
2023/03/15 03:43:21;;;;;;;2.47;0.40;;;19.20;52.60;;;;;;5079868;28;20090;-72
2023/03/15 03:45:47;;;;;;;1.63;0.40;;;19.20;52.60;;;;;;5071515;28;20106;-72
2023/03/15 03:48:13;;;;;;;1.38;0.35;;;19.20;52.60;;;;;;5083845;28;20040;-72
2023/03/15 03:50:38;;;;;;;1.05;0.40;;;19.20;52.50;;;;;;5076087;28;20468;-71
2023/03/15 03:53:04;;;;;;;0.98;0.20;;;19.20;52.60;;;;;;5079322;28;20332;-72
2023/03/15 03:55:32;;;;;;;1.08;0.22;;;19.20;52.50;;;;;;5072057;28;20056;-72
2023/03/15 03:57:58;;;;;;;1.70;0.57;;;19.30;52.60;;;;;;5081655;28;20036;-72
2023/03/15 04:00:24;;;;;;;0.93;0.30;;;19.20;52.50;;;;;;5079438;28;20510;-72
2023/03/15 04:02:52;;;;;;;0.50;0.20;;;19.20;52.50;;;;;;5083801;28;20051;-72
2023/03/15 04:05:18;;;;;;;1.20;0.20;;;19.20;52.50;;;;;;5076468;28;20036;-72
2023/03/15 04:07:44;;;;;;;1.27;0.20;;;19.30;52.70;;;;;;5081996;28;20108;-72
2023/03/15 04:10:13;;;;;;;1.45;0.30;;;19.30;52.50;;;;;;5085314;28;20047;-72
2023/03/15 04:12:41;;;;;;;1.23;0.25;;;19.30;52.50;;;;;;5081875;28;20058;-73
2023/03/15 04:15:07;;;;;;;1.55;0.40;;;19.30;52.50;;;;;;5076823;28;20040;-72
2023/03/15 04:17:32;;;;;;;2.70;0.45;;;19.30;52.50;;;;;;5080359;28;20526;-72
2023/03/15 04:20:00;;;;;;;1.13;0.30;;;19.30;52.50;;;;;;5087317;28;20048;-72
2023/03/15 04:22:26;;;;;;;2.33;0.57;;;19.40;52.50;;;;;;5060706;28;20044;-73
2023/03/15 04:24:51;;;;;;;1.15;0.22;;;19.40;52.50;;;;;;5062020;28;20399;-72
2023/03/15 04:27:17;;;;;;;0.98;0.20;;;19.40;52.50;;;;;;5077785;28;20400;-72
2023/03/15 04:29:43;;;;;;;0.82;0.20;;;19.40;52.50;;;;;;5088720;28;20052;-73
2023/03/15 04:32:09;;;;;;;2.17;0.30;;;19.40;52.50;;;;;;5076512;28;20094;-73
2023/03/15 04:34:37;;;;;;;1.10;0.30;;;19.40;52.50;;;;;;5064525;28;20521;-73
2023/03/15 04:37:04;;;;;;;1.60;0.30;;;19.40;52.40;;;;;;5075139;28;20040;-73
2023/03/15 04:39:29;;;;;;;1.35;0.40;;;19.40;52.40;;;;;;5091075;28;20425;-73
2023/03/15 04:41:55;;;;;;;2.78;0.40;;;19.50;52.40;;;;;;5075429;28;20135;-72
2023/03/15 04:44:20;;;;;;;0.80;0.30;;;19.50;52.40;;;;;;5082116;28;20120;-72
2023/03/15 04:46:46;;;;;;;0.68;0.20;;;19.50;52.40;;;;;;5073980;28;20040;-73
2023/03/15 04:49:11;;;;;;;0.47;0.20;;;19.50;52.40;;;;;;5072690;28;20051;-73
2023/03/15 04:51:37;;;;;;;0.28;0.20;;;19.50;52.40;;;;;;5057155;28;20450;-73
2023/03/15 04:54:03;;;;;;;1.23;0.30;;;19.50;52.40;;;;;;5082933;28;20139;-72
2023/03/15 04:56:29;;;;;;;1.25;0.40;;;19.60;52.40;;;;;;5074437;28;20044;-73
2023/03/15 04:58:54;;;;;;;1.08;0.30;;;19.60;52.40;;;;;;5089364;28;20205;-73
2023/03/15 05:01:22;;;;;;;1.08;0.25;;;19.60;52.40;;;;;;5061325;28;20036;-72
2023/03/15 05:03:47;;;;;;;1.30;0.20;;;19.60;52.40;;;;;;5067042;28;20040;-72
2023/03/15 05:06:13;;;;;;;1.50;0.40;;;19.60;52.40;;;;;;5074356;28;20032;-71
2023/03/15 05:08:38;;;;;;;0.70;0.30;;;19.60;52.40;;;;;;5085680;28;20119;-72
2023/03/15 05:11:04;;;;;;;0.77;0.40;;;19.60;52.40;;;;;;5079038;28;20048;-72
2023/03/15 05:13:29;;;;;;;2.90;0.40;;;19.60;52.40;;;;;;5063384;28;20043;-72
2023/03/15 05:15:55;;;;;;;1.20;0.38;;;19.70;52.40;;;;;;5074197;28;20134;-73
2023/03/15 05:18:21;;;;;;;1.25;0.45;;;19.60;52.30;;;;;;5064086;28;20134;-72
2023/03/15 05:20:46;;;;;;;0.93;0.30;;;19.70;52.30;;;;;;5082158;28;20052;-72
2023/03/15 05:23:12;;;;;;;0.70;0.20;;;19.70;52.30;;;;;;5081411;28;20089;-72
2023/03/15 05:25:38;;;;;;;0.82;0.30;;;19.70;52.30;;;;;;5074620;28;20404;-72
2023/03/15 05:28:04;;;;;;;1.30;0.30;;;19.70;52.20;;;;;;5079561;28;20044;-72
2023/03/15 05:30:30;;;;;;;0.77;0.22;;;19.70;52.20;;;;;;5084707;28;20044;-73
2023/03/15 05:32:56;;;;;;;1.58;0.30;;;19.70;52.20;;;;;;5059945;28;20063;-72
2023/03/15 05:35:25;;;;;;;1.30;0.30;;;19.70;52.20;;;;;;5060295;28;20429;-72
2023/03/15 05:38:00;;;;;;;1.92;0.30;;;19.80;52.20;;;;;;5077527;28;20041;-72
2023/03/15 05:40:28;;;;;;;0.85;0.30;;;19.70;52.20;;;;;;5067358;28;20060;-72
2023/03/15 05:42:54;;;;;;;1.02;0.28;;;19.70;52.20;;;;;;5077347;28;20048;-72
2023/03/15 05:45:20;;;;;;;2.25;0.30;;;19.70;52.10;;;;;;5060206;28;20114;-72
2023/03/15 05:47:45;;;;;;;1.50;0.20;;;19.80;52.20;;;;;;5075757;28;20430;-68
2023/03/15 05:50:11;;;;;;;0.90;0.20;;;19.80;52.20;;;;;;5088534;28;20032;-68
2023/03/15 05:52:36;;;;;;;0.85;0.32;;;19.80;52.20;;;;;;5073266;28;20101;-68
2023/03/15 05:55:02;;;;;;;0.77;0.40;;;19.80;52.20;;;;;;5081410;28;20036;-68
2023/03/15 05:57:28;;;;;;;0.93;0.30;;;19.80;52.20;;;;;;5072391;28;20079;-69
2023/03/15 05:59:54;;;;;;;0.55;0.20;;;19.80;52.10;;;;;;5071072;28;20050;-69
2023/03/15 06:02:20;;;;;;;1.08;0.20;;;19.80;52.10;;;;;;5073987;28;20431;-68
2023/03/15 06:04:45;;;;;;;0.88;0.30;;;19.80;52.10;;;;;;5062723;28;20407;-68
2023/03/15 06:07:11;;;;;;;1.02;0.20;;;19.80;52.10;;;;;;5073638;28;20483;-69
2023/03/15 06:09:36;;;;;;;1.23;0.30;;;19.90;52.10;;;;;;5089182;28;20376;-68
2023/03/15 06:12:02;;;;;;;1.60;0.30;;;19.90;52.20;;;;;;5073960;28;20036;-68
2023/03/15 06:14:28;;;;;;;1.17;0.30;;;19.90;52.10;;;;;;5064273;28;20135;-69
2023/03/15 06:16:54;;;;;;;0.68;0.25;;;19.90;52.10;;;;;;5083376;28;20534;-69
2023/03/15 06:19:20;;;;;;;1.13;0.30;;;19.90;52.10;;;;;;5086474;28;20039;-68
2023/03/15 06:21:46;;;;;;;1.80;0.30;;;19.90;52.10;;;;;;5075495;28;20048;-68
2023/03/15 06:24:11;;;;;;;0.98;0.30;;;19.90;52.10;;;;;;5087560;28;20048;-68
2023/03/15 06:26:37;;;;;;;2.45;0.30;;;19.90;52.00;;;;;;5055254;28;20052;-69
2023/03/15 06:29:02;;;;;;;0.82;0.20;;;19.90;52.00;;;;;;5064892;28;20100;-69
2023/03/15 06:31:28;;;;;;;2.95;0.68;;;19.90;52.00;;;;;;5078780;28;20056;-69
2023/03/15 06:33:54;;;;;;;1.00;0.40;;;19.90;52.00;;;;;;5062701;28;20483;-68
2023/03/15 06:36:19;;;;;;;1.42;0.28;;;20.00;52.10;;;;;;5072884;28;20041;-69
2023/03/15 06:38:45;;;;;;;1.55;0.20;;;20.00;52.10;;;;;;5062008;28;20060;-68
2023/03/15 06:41:11;;;;;;;0.93;0.30;;;20.00;52.10;;;;;;5081912;28;20052;-68
2023/03/15 06:43:37;;;;;;;0.98;0.22;;;20.00;52.10;;;;;;5078463;28;20364;-68
2023/03/15 06:46:02;;;;;;;1.23;0.30;;;20.00;52.00;;;;;;5056890;28;20485;-69
2023/03/15 06:48:28;;;;;;;1.85;0.20;;;20.00;52.00;;;;;;5076883;28;20036;-69
2023/03/15 06:50:54;;;;;;;0.85;0.25;;;20.00;52.00;;;;;;5084196;28;20045;-69
2023/03/15 06:53:19;;;;;;;0.68;0.30;;;20.00;52.00;;;;;;5075605;28;20377;-69
2023/03/15 06:55:45;;;;;;;0.63;0.30;;;20.00;52.00;;;;;;5076458;28;20040;-69
2023/03/15 06:58:11;;;;;;;1.83;0.20;;;20.00;51.90;;;;;;5073773;28;20086;-69
2023/03/15 07:00:37;;;;;;;1.60;0.30;;;20.00;51.90;;;;;;5087144;28;20037;-71
2023/03/15 07:03:02;;;;;;;1.55;0.30;;;20.00;52.00;;;;;;5054324;28;20052;-78
2023/03/15 07:05:28;;;;;;;1.45;0.28;;;20.00;51.90;;;;;;5079964;28;20036;-75
2023/03/15 07:07:53;;;;;;;1.88;0.50;;;20.10;52.00;;;;;;5055225;28;20051;-76
2023/03/15 07:10:20;;;;;;;2.15;0.20;;;20.10;52.00;;;;;;5087364;28;20457;-75
2023/03/15 07:12:45;;;;;;;2.40;0.38;;;20.10;52.10;;;;;;5054474;28;20480;-75
2023/03/15 07:15:11;;;;;;;1.80;0.28;;;20.10;52.10;;;;;;5079967;28;20158;-75
2023/03/15 07:17:37;;;;;;;4.38;0.35;;;20.10;52.20;;;;;;5071624;28;20052;-75
2023/03/15 07:20:04;;;;;;;1.20;0.20;;;20.10;52.20;;;;;;5088132;28;20185;-74
2023/03/15 07:22:31;;;;;;;1.07;0.20;;;20.10;52.20;;;;;;5072645;28;20421;-74
2023/03/15 07:24:57;;;;;;;0.95;0.30;;;20.20;52.40;;;;;;5078769;28;20705;-74
2023/03/15 07:27:23;;;;;;;1.77;0.28;;;20.20;52.40;;;;;;5054779;28;20098;-75
2023/03/15 07:29:48;;;;;;;2.65;0.40;;;20.20;52.50;;;;;;5085430;28;20039;-76
2023/03/15 07:32:14;;;;;;;2.65;0.38;;;20.20;52.50;;;;;;5074074;28;20040;-69
2023/03/15 07:34:39;;;;;;;2.60;0.40;;;20.20;52.50;;;;;;5060301;28;20044;-73
2023/03/15 07:37:05;;;;;;;1.13;0.40;;;20.20;52.50;;;;;;5054692;28;20044;-80
2023/03/15 07:39:34;;;;;;;2.55;0.38;;;20.20;52.70;;;;;;5076048;28;20044;-68
2023/03/15 07:41:59;;;;;;;6.00;0.35;;;20.20;52.70;;;;;;5068739;28;20087;-70
2023/03/15 07:44:25;;;;;;;2.33;0.30;;;20.30;52.80;;;;;;5087768;28;20076;-69
2023/03/15 07:46:51;;;;;;;0.90;0.22;;;20.20;52.90;;;;;;5071443;28;20044;-69
2023/03/15 07:49:16;;;;;;;0.88;0.20;;;20.30;52.90;;;;;;5086757;28;20036;-69
2023/03/15 07:51:42;;;;;;;1.52;0.32;;;20.30;52.90;;;;;;5091859;28;20039;-67
2023/03/15 07:54:08;;;;;;;2.10;0.30;;;20.30;53.00;;;;;;5091395;28;20054;-68
2023/03/15 07:56:33;;;;;;;2.47;0.40;;;20.30;53.00;;;;;;5066002;28;20431;-75
2023/03/15 07:58:59;;;;;;;2.42;0.30;;;20.30;53.00;;;;;;5082466;28;20048;-73
2023/03/15 08:01:24;;;;;;;1.33;0.40;;;20.30;53.00;;;;;;5084938;28;20139;-73
2023/03/15 08:03:50;;;;;;;2.08;0.38;;;20.30;52.90;;;;;;5074293;28;20480;-72
2023/03/15 08:06:16;;;;;;;2.45;0.35;;;20.30;52.90;;;;;;5084200;28;20100;-75
2023/03/15 08:08:41;;;;;;;2.25;0.30;;;20.30;52.90;;;;;;5091530;28;20048;-77
2023/03/15 08:11:07;;;;;;;3.00;0.45;;;20.30;53.00;;;;;;5092394;28;20040;-75
2023/03/15 08:13:32;;;;;;;2.33;0.35;;;20.30;53.00;;;;;;5073313;28;20059;-79
2023/03/15 08:15:58;;;;;;;2.33;0.50;;;20.40;53.10;;;;;;5074520;28;20063;-75
2023/03/15 08:18:23;;;;;;;2.13;0.40;;;20.40;53.20;;;;;;5073967;28;20396;-77
2023/03/15 08:20:49;;;;;;;1.52;0.32;;;20.40;53.30;;;;;;5073342;28;20052;-76
2023/03/15 08:23:15;;;;;;;3.70;0.43;;;20.40;53.30;;;;;;5092328;28;20051;-75
2023/03/15 08:25:41;;;;;;;2.85;0.50;;;20.40;53.40;;;;;;5092090;28;20127;-80
2023/03/15 08:28:07;;;;;;;1.45;0.45;;;20.40;53.40;;;;;;5091583;28;20468;-76
2023/03/15 08:30:33;;;;;;;3.03;0.30;;;20.40;53.40;;;;;;5092011;28;20165;-76
2023/03/15 08:32:59;;;;;;;0.98;0.40;;;20.40;53.40;;;;;;5092162;28;20405;-78
2023/03/15 08:35:24;;;;;;;3.40;0.47;;;20.40;53.40;;;;;;5092076;28;20154;-79
2023/03/15 08:37:51;;;;;;;3.15;0.30;;;20.50;53.40;;;;;;5073841;28;20036;-81
2023/03/15 08:40:22;;;;;;;2.05;0.40;;;20.50;53.50;;;;;;5092457;28;20040;-81
2023/03/15 08:42:48;;;;;;;1.83;0.30;;;20.50;53.50;;;;;;5076430;28;20048;-80
2023/03/15 08:45:14;;;;;;;2.67;0.40;;;20.50;53.60;;;;;;5091724;28;20037;-79
2023/03/15 08:47:40;;;;;;;2.65;0.50;;;20.50;53.60;;;;;;5096659;28;20044;-79
2023/03/15 08:50:11;;;;;;;4.63;0.50;;;20.50;53.70;;;;;;5096110;28;20101;-79
2023/03/15 08:52:37;;;;;;;2.92;0.38;;;20.50;53.70;;;;;;5096846;28;20046;-78
2023/03/15 08:55:03;;;;;;;3.90;0.70;;;20.50;53.70;;;;;;5096729;28;20122;-78
2023/03/15 08:57:31;;;;;;;2.05;0.40;;;20.50;53.60;;;;;;5095837;28;20047;-79
2023/03/15 08:59:58;;;;;;;3.30;0.65;;;20.50;53.60;;;;;;5097626;28;20116;-77
2023/03/15 09:02:23;;;;;;;2.03;0.40;;;20.60;53.70;;;;;;5094761;28;20048;-77
2023/03/15 09:04:49;;;;;;;4.22;0.38;;;20.60;53.70;;;;;;5076692;28;20055;-78
2023/03/15 09:07:14;;;;;;;3.78;0.45;;;20.60;53.70;;;;;;5078039;28;20044;-78
2023/03/15 09:09:40;;;;;;;1.52;0.30;;;20.60;53.60;;;;;;5095716;28;20407;-76
2023/03/15 09:12:06;;;;;;;2.72;0.38;;;20.60;53.60;;;;;;5095369;28;20044;-77
2023/03/15 09:14:32;;;;;;;1.73;0.40;;;20.60;53.50;;;;;;5095084;28;20404;-68
2023/03/15 09:16:57;;;;;;;2.80;0.40;;;20.60;53.50;;;;;;5094057;28;20052;-70
2023/03/15 09:19:23;;;;;;;2.08;0.60;;;20.60;53.40;;;;;;5095073;28;20051;-76
2023/03/15 09:21:48;;;;;;;1.75;0.30;;;20.60;53.30;;;;;;5076925;28;20121;-76
2023/03/15 09:24:14;;;;;;;2.53;0.47;;;20.60;53.30;;;;;;5094412;28;20040;-75
2023/03/15 09:26:40;;;;;;;1.85;0.40;;;20.60;53.90;;;;;;5095018;28;20060;-75
2023/03/15 09:29:07;;;;;;;2.55;0.40;;;20.60;53.10;;;;;;5095027;28;20445;-75
2023/03/15 09:31:33;;;;;;;3.10;0.50;;;20.60;53.10;;;;;;5075774;28;20074;-75
2023/03/15 09:33:58;;;;;;;3.55;0.98;;;20.60;53.00;;;;;;5095033;28;20052;-74
2023/03/15 09:36:24;;;;;;;1.95;0.73;;;20.60;52.90;;;;;;5094597;28;20093;-75
2023/03/15 09:38:49;;;;;;;2.25;0.68;;;20.60;52.90;;;;;;5076168;28;20040;-75
2023/03/15 09:41:38;;;;;;;1.05;0.28;;;20.60;52.90;;;;;;5094987;28;20047;-74
2023/03/15 09:44:41;;;;;;;2.17;0.50;;;20.60;52.80;;;;;;5063107;28;20452;-74
2023/03/15 09:47:40;;;;;;;2.53;0.30;;;20.60;52.80;;;;;;5079340;28;20411;-74
2023/03/15 09:50:24;;;;;;;3.55;0.43;;;20.50;52.70;;;;;;5061654;28;20044;-74
2023/03/15 09:52:58;;;;;;;3.05;0.55;;;20.50;52.70;;;;;;5055659;28;20119;-74
2023/03/15 09:55:27;;;;;;;1.45;0.43;;;20.50;52.70;;;;;;5074396;28;20109;-74
2023/03/15 09:58:00;;;;;;;2.40;0.40;;;20.50;52.70;;;;;;5088118;28;20044;-74
2023/03/15 10:00:46;;;;;;;3.22;0.50;;;20.50;52.70;;;;;;5059787;28;20059;-73
2023/03/15 10:03:22;;;;;;;2.75;0.40;;;20.50;52.70;;;;;;5078375;28;20055;-73
2023/03/15 10:06:15;;;;;;;4.65;0.40;;;20.40;52.70;;;;;;5075580;28;20052;-74
2023/03/15 10:08:41;;;;;;;3.00;0.45;;;20.40;52.70;;;;;;5090351;28;20055;-74
2023/03/15 10:11:12;;;;;;;3.83;0.50;;;20.40;52.70;;;;;;5094547;28;20036;-73
2023/03/15 10:13:41;;;;;;;2.08;0.50;;;20.40;52.60;;;;;;5092957;28;20042;-74
2023/03/15 10:16:15;;;;;;;2.80;0.52;;;20.40;52.50;;;;;;5076336;28;20048;-73
2023/03/15 10:18:47;;;;;;;1.63;0.30;;;20.40;52.50;;;;;;5093609;28;20064;-74
2023/03/15 10:21:20;;;;;;;2.55;0.32;;;20.40;52.50;;;;;;5075187;28;20043;-74
2023/03/15 10:23:52;;;;;;;2.63;0.50;;;20.40;52.50;;;;;;5075701;28;20067;-73
2023/03/15 10:26:19;;;;;;;1.90;0.38;;;20.40;52.50;;;;;;5043146;28;20044;-74
2023/03/15 10:28:45;;;;;;;2.55;0.55;;;20.40;52.50;;;;;;5054616;28;20037;-74
2023/03/15 10:31:15;;;;;;;1.15;0.32;;;20.40;52.60;;;;;;5056217;28;20094;-73
2023/03/15 10:33:41;;;;;;;2.17;0.55;;;20.40;52.50;;;;;;5056962;28;20055;-73
2023/03/15 10:36:17;;;;;;;1.40;0.40;;;20.40;52.50;;;;;;5094009;28;20036;-74
2023/03/15 10:38:44;;;;;;;3.05;0.45;;;20.40;52.40;;;;;;5075640;28;20055;-74
2023/03/15 10:41:13;;;;;;;1.45;0.30;;;20.40;52.50;;;;;;5093206;28;20036;-74
2023/03/15 10:43:40;;;;;;;1.90;0.30;;;20.40;52.30;;;;;;5093364;28;20076;-76
2023/03/15 10:46:20;;;;;;;2.15;0.50;;;20.40;52.10;;;;;;5093538;28;20048;-78
2023/03/15 10:48:59;;;;;;;2.10;0.40;;;20.40;51.80;;;;;;5092063;28;20048;-76
2023/03/15 10:51:30;;;;;;;2.70;0.40;;;20.40;51.60;;;;;;5059545;28;20055;-74
2023/03/15 10:54:12;;;;;;;2.75;0.40;;;20.30;51.50;;;;;;5093804;28;20059;-74
2023/03/15 10:56:49;;;;;;;3.85;0.50;;;20.30;51.20;;;;;;5092400;28;20111;-74
2023/03/15 10:59:25;;;;;;;2.73;0.50;;;20.40;51.00;;;;;;5060265;28;20392;-78
2023/03/15 11:01:53;;;;;;;4.05;0.52;;;20.30;50.70;;;;;;5074240;28;20306;-80
2023/03/15 11:04:23;;;;;;;1.65;0.35;;;20.40;50.70;;;;;;5059176;28;20044;-80
2023/03/15 11:06:49;;;;;;;1.90;0.40;;;20.30;50.40;;;;;;5093845;28;20533;-83
2023/03/15 11:09:17;;;;;;;3.67;0.50;;;20.30;50.30;;;;;;5092839;28;20040;-66
2023/03/15 11:12:03;;;;;;;4.85;0.40;;;20.30;50.10;;;;;;5092499;28;20101;-80
2023/03/15 11:14:40;;;;;;;3.35;0.60;;;20.30;49.80;;;;;;5091698;28;20112;-74
2023/03/15 11:17:07;;;;;;;3.72;0.73;;;20.30;50.30;;;;;;5091754;28;20067;-78
2023/03/15 11:19:40;;;;;;;2.15;0.50;;;20.30;50.60;;;;;;5093087;28;20040;-79
2023/03/15 11:22:10;;;;;;;1.77;0.50;;;20.30;51.00;;;;;;5057247;28;20040;-70
2023/03/15 11:24:35;;;;;;;3.42;0.50;;;20.30;51.20;;;;;;5074157;28;20506;-73
2023/03/15 11:27:02;;;;;;;3.25;0.50;;;20.30;51.40;;;;;;5093266;28;20039;-72
2023/03/15 11:29:35;;;;;;;1.48;0.50;;;20.30;51.20;;;;;;5092847;28;20048;-73
2023/03/15 11:32:06;;;;;;;1.77;0.30;;;20.30;51.20;;;;;;5058499;28;20043;-74
2023/03/15 11:35:01;;;;;;;1.63;0.40;;;20.30;51.20;;;;;;5057647;28;20059;-74
2023/03/15 11:37:47;;;;;;;3.90;0.50;;;20.40;51.30;;;;;;5076576;28;20036;-73
2023/03/15 11:40:22;;;;;;;1.17;0.40;;;20.40;51.40;;;;;;5092928;28;20119;-74
2023/03/15 11:43:22;;;;;;;3.00;0.50;;;20.30;51.40;;;;;;5075546;28;20391;-73
2023/03/15 11:45:51;;;;;;;3.15;0.50;;;20.40;51.50;;;;;;5048839;28;20083;-72
2023/03/15 11:48:41;;;;;;;2.83;0.70;;;20.40;52.30;;;;;;5074729;28;20047;-71
2023/03/15 11:51:07;;;;;;;3.08;0.50;;;20.40;51.70;;;;;;5073964;28;20086;-70
2023/03/15 11:53:48;;;;;;;2.38;0.50;;;20.40;51.60;;;;;;5056984;28;20119;-71
2023/03/15 11:56:43;;;;;;;1.63;0.40;;;20.40;51.60;;;;;;5072594;28;20044;-72
2023/03/15 11:59:11;;;;;;;2.97;0.50;;;20.40;51.50;;;;;;5089627;28;20067;-72
2023/03/15 12:01:54;;;;;;;4.13;0.73;;;20.40;51.50;;;;;;5057158;28;20032;-70
2023/03/15 12:04:30;;;;;;;3.25;0.65;;;20.40;51.50;;;;;;5091520;28;20036;-70
2023/03/15 12:06:56;;;;;;;4.30;0.60;;;20.40;51.40;;;;;;5071867;28;20044;-70
2023/03/15 12:09:31;;;;;;;2.67;0.38;;;20.40;51.40;;;;;;5074101;28;20038;-72
2023/03/15 12:12:17;;;;;;;1.65;0.40;;;20.40;51.10;;;;;;5090674;28;20047;-70
2023/03/15 12:14:43;;;;;;;2.97;0.63;;;20.40;51.10;;;;;;5023415;28;20543;-70
2023/03/15 12:17:26;;;;;;;2.20;0.50;;;20.30;51.00;;;;;;5053764;28;20049;-69
2023/03/15 12:20:10;;;;;;;4.20;0.60;;;20.30;50.80;;;;;;5069285;28;20040;-70
2023/03/15 12:22:43;;;;;;;2.25;0.30;;;20.30;51.20;;;;;;5072547;28;20051;-70
2023/03/15 12:25:31;;;;;;;1.45;0.50;;;20.30;50.70;;;;;;5055107;28;20103;-70
2023/03/15 12:27:56;;;;;;;3.00;0.40;;;20.30;50.50;;;;;;5046784;28;20470;-70
2023/03/15 12:30:24;;;;;;;2.95;0.47;;;20.30;50.50;;;;;;5074995;28;20547;-70
2023/03/15 12:32:53;;;;;;;4.97;0.50;;;20.30;50.50;;;;;;5076714;28;20049;-70
2023/03/15 12:35:19;;;;;;;3.25;0.65;;;20.20;50.30;;;;;;5074375;28;20055;-71
2023/03/15 12:37:49;;;;;;;4.18;0.65;;;20.20;50.20;;;;;;5057789;28;20048;-71
2023/03/15 12:40:15;;;;;;;1.45;0.32;;;20.30;50.20;;;;;;5075647;28;20036;-70
2023/03/15 12:42:41;;;;;;;2.20;0.40;;;20.30;50.20;;;;;;5075471;28;20047;-71
2023/03/15 12:45:18;;;;;;;2.25;0.43;;;20.20;50.20;;;;;;5075969;28;20040;-71
2023/03/15 12:47:52;;;;;;;2.92;0.40;;;20.30;50.20;;;;;;5074338;28;20058;-71
2023/03/15 12:50:38;;;;;;;3.25;0.60;;;20.30;50.20;;;;;;5075807;28;20044;-72
2023/03/15 12:53:28;;;;;;;2.47;0.40;;;20.30;50.20;;;;;;5075394;28;20098;-71
2023/03/15 12:55:54;;;;;;;1.50;0.40;;;20.30;50.20;;;;;;5065531;28;20075;-71